Time;durP1;ratioP1;P1;durP2;ratioP2;P2;SDS_P1;SDS_P2;PMS_P1;PMS_P2;Temp;Humidity;BMP_temperature;BMP_pressure;BME280_temperature;BME280_humidity;BME280_pressure;Samples;Min_cycle;Max_cycle;Signal;HPM_P1;HPM_P2
2021/06/16 00:02:15;;;;;;;3.63;2.30;;;;;;;15.88;100.00;94478.16;10486426;28;20270;-72
2021/06/16 00:07:16;;;;;;;3.53;2.50;;;;;;;15.85;100.00;94477.97;10485800;28;20293;-72
2021/06/16 00:12:17;;;;;;;4.25;2.67;;;;;;;15.72;100.00;94469.59;10483425;28;20100;-72
2021/06/16 00:17:17;;;;;;;12.70;2.93;;;;;;;15.85;100.00;94476.09;10484651;28;20020;-72
2021/06/16 00:22:18;;;;;;;5.40;2.50;;;;;;;15.85;100.00;94464.44;10483488;28;20635;-72
2021/06/16 00:27:19;;;;;;;5.77;2.87;;;;;;;15.81;100.00;94466.16;10483744;28;20275;-72
2021/06/16 00:32:19;;;;;;;4.20;2.80;;;;;;;15.91;100.00;94457.78;10483384;28;20049;-72
2021/06/16 00:37:19;;;;;;;5.30;2.33;;;;;;;15.96;100.00;94449.47;10483702;28;20029;-72
2021/06/16 00:42:24;;;;;;;5.80;2.90;;;;;;;16.03;100.00;94463.41;10483385;28;20858;-72
2021/06/16 00:47:24;;;;;;;6.72;2.40;;;;;;;16.06;100.00;94454.63;10482312;28;20082;-72
2021/06/16 00:52:24;;;;;;;3.40;2.77;;;;;;;16.11;100.00;94437.41;10483160;28;20024;-73
2021/06/16 00:57:25;;;;;;;4.13;2.80;;;;;;;16.26;100.00;94444.31;10482329;28;20036;-72
2021/06/16 01:02:31;;;;;;;9.13;2.38;;;;;;;16.23;100.00;94447.66;10482654;28;20032;-72
2021/06/16 01:07:37;;;;;;;4.00;2.22;;;;;;;16.36;100.00;94437.78;10482547;28;20391;-72
2021/06/16 01:12:38;;;;;;;2.70;2.15;;;;;;;16.35;100.00;94434.28;10481892;28;20463;-72
2021/06/16 01:17:52;;;;;;;4.82;2.35;;;;;;;16.40;100.00;94427.91;10482132;28;20032;-72
2021/06/16 01:23:06;;;;;;;3.05;2.53;;;;;;;16.34;100.00;94431.88;10480981;28;20118;-73
2021/06/16 01:28:09;;;;;;;2.97;2.00;;;;;;;16.38;100.00;94421.97;10481337;28;20391;-72
2021/06/16 01:33:12;;;;;;;2.03;1.92;;;;;;;16.34;100.00;94429.16;10481681;28;20140;-72
2021/06/16 01:38:14;;;;;;;3.13;2.42;;;;;;;16.37;100.00;94434.75;10481945;28;20039;-72
2021/06/16 01:43:16;;;;;;;3.50;2.67;;;;;;;16.22;100.00;94425.16;10481883;28;20107;-72
2021/06/16 01:48:19;;;;;;;3.78;3.00;;;;;;;16.31;100.00;94414.34;10481938;28;20035;-72
2021/06/16 01:53:21;;;;;;;2.70;2.33;;;;;;;16.29;100.00;94426.63;10482293;28;20089;-72
2021/06/16 01:58:22;;;;;;;2.63;2.42;;;;;;;16.36;100.00;94427.72;10486177;28;20091;-72
2021/06/16 02:03:23;;;;;;;6.53;2.88;;;;;;;16.25;100.00;94433.78;10489641;28;20062;-72
2021/06/16 02:08:26;;;;;;;3.90;2.58;;;;;;;16.35;100.00;94434.28;10490034;28;20020;-72
2021/06/16 02:13:54;;;;;;;14.55;3.05;;;;;;;16.43;100.00;94431.91;10487879;28;20070;-72
2021/06/16 02:19:16;;;;;;;2.83;2.25;;;;;;;16.29;100.00;94432.03;10481880;28;20040;-72
2021/06/16 02:24:18;;;;;;;8.32;2.50;;;;;;;16.17;100.00;94430.75;10488743;28;20060;-72
2021/06/16 02:29:19;;;;;;;4.53;3.03;;;;;;;16.18;100.00;94434.25;10488475;28;20041;-72
2021/06/16 02:34:20;;;;;;;5.18;2.60;;;;;;;16.23;100.00;94439.53;10488790;28;20052;-72
2021/06/16 02:39:25;;;;;;;4.25;2.28;;;;;;;16.11;100.00;94436.63;10488682;28;20031;-72
2021/06/16 02:44:26;;;;;;;7.03;2.67;;;;;;;15.85;100.00;94434.63;10487056;28;20109;-72
2021/06/16 02:49:44;;;;;;;3.22;2.60;;;;;;;15.79;100.00;94435.84;10485741;28;20024;-71
2021/06/16 02:54:49;;;;;;;5.28;2.72;;;;;;;15.72;100.00;94433.59;10486123;28;20373;-72
2021/06/16 02:59:52;;;;;;;5.10;2.95;;;;;;;15.71;100.00;94435.50;10486516;28;20028;-72
2021/06/16 03:04:53;;;;;;;4.80;2.58;;;;;;;15.79;100.00;94442.09;10486701;28;20426;-72
2021/06/16 03:09:56;;;;;;;5.97;2.67;;;;;;;15.85;100.00;94446.28;10485163;28;20028;-72
2021/06/16 03:14:59;;;;;;;3.33;2.80;;;;;;;15.91;100.00;94449.63;10487250;28;20020;-72
2021/06/16 03:20:01;;;;;;;4.15;2.58;;;;;;;16.00;100.00;94442.31;10485569;28;20040;-72
2021/06/16 03:25:03;;;;;;;9.23;2.67;;;;;;;16.19;100.00;94460.25;10485260;28;20024;-72
2021/06/16 03:30:04;;;;;;;6.28;2.90;;;;;;;16.16;100.00;94461.66;10485540;28;20089;-72
2021/06/16 03:35:06;;;;;;;6.25;3.53;;;;;;;16.23;100.00;94451.16;10484487;28;20052;-72
2021/06/16 03:40:08;;;;;;;9.82;3.05;;;;;;;16.27;100.00;94453.22;10485953;28;20464;-72
2021/06/16 03:45:10;;;;;;;4.78;2.50;;;;;;;16.32;100.00;94463.94;10485510;28;20169;-75
2021/06/16 03:50:15;;;;;;;7.28;3.13;;;;;;;16.15;100.00;94454.66;10485814;28;20025;-73
2021/06/16 03:55:17;;;;;;;6.40;2.90;;;;;;;16.29;100.00;94464.56;10485014;28;20063;-73
2021/06/16 04:00:20;;;;;;;3.28;2.58;;;;;;;16.28;100.00;94480.03;10485350;28;20434;-72
2021/06/16 04:05:21;;;;;;;7.35;3.60;;;;;;;16.47;100.00;94477.03;10484445;28;20036;-72
2021/06/16 04:10:23;;;;;;;6.18;3.15;;;;;;;16.43;100.00;94475.28;10483129;28;20746;-73
2021/06/16 04:15:25;;;;;;;7.38;2.72;;;;;;;16.55;100.00;94481.69;10484305;28;20440;-73
2021/06/16 04:20:27;;;;;;;5.82;3.03;;;;;;;16.89;100.00;94485.56;10484306;28;20119;-73
2021/06/16 04:25:27;;;;;;;7.20;3.13;;;;;;;17.05;100.00;94480.47;10484079;28;20028;-72
2021/06/16 04:30:28;;;;;;;9.63;2.80;;;;;;;17.27;100.00;94484.09;10483763;28;20024;-72
2021/06/16 04:35:28;;;;;;;5.65;3.42;;;;;;;17.63;100.00;94484.84;10482683;28;20048;-72
2021/06/16 04:40:29;;;;;;;4.68;2.30;;;;;;;17.38;100.00;94474.50;10483160;28;20056;-73
2021/06/16 04:45:29;;;;;;;5.27;2.93;;;;;;;17.51;100.00;94485.50;10483085;28;20142;-72
2021/06/16 04:50:29;;;;;;;7.80;2.83;;;;;;;18.02;100.00;94481.06;10482796;28;20024;-72
2021/06/16 04:55:30;;;;;;;5.33;2.47;;;;;;;18.51;100.00;94480.63;10482560;28;20029;-73
2021/06/16 05:00:30;;;;;;;7.68;2.90;;;;;;;19.24;100.00;94476.75;10480820;28;20089;-73
2021/06/16 05:05:31;;;;;;;3.10;2.15;;;;;;;19.97;100.00;94474.59;10482121;28;20028;-73
2021/06/16 05:10:31;;;;;;;6.27;3.27;;;;;;;19.63;100.00;94473.78;10481843;28;20024;-72
2021/06/16 05:15:32;;;;;;;4.23;2.60;;;;;;;20.24;100.00;94485.97;10481719;28;20375;-72
2021/06/16 05:20:32;;;;;;;9.32;2.17;;;;;;;21.03;100.00;94485.66;10481854;28;20279;-72
2021/06/16 05:25:32;;;;;;;7.13;2.40;;;;;;;21.66;100.00;94497.97;10480123;28;20062;-73
2021/06/16 05:30:33;;;;;;;4.85;1.90;;;;;;;21.91;100.00;94487.69;10479980;28;20081;-73
2021/06/16 05:35:33;;;;;;;5.57;2.20;;;;;;;22.76;96.74;94492.88;10481017;28;20044;-72
2021/06/16 05:40:33;;;;;;;3.57;1.87;;;;;;;22.30;91.50;94489.81;10481167;28;20020;-72
2021/06/16 05:45:34;;;;;;;3.30;1.70;;;;;;;21.83;100.00;94500.38;10481232;28;20175;-72
2021/06/16 05:50:34;;;;;;;6.60;2.13;;;;;;;22.08;100.00;94499.44;10480526;28;20024;-73
2021/06/16 05:55:35;;;;;;;5.50;1.97;;;;;;;22.89;92.10;94499.03;10480097;28;20059;-73
2021/06/16 06:00:35;;;;;;;12.35;3.22;;;;;;;22.67;95.46;94500.50;10480915;28;20025;-73
2021/06/16 06:05:35;;;;;;;6.83;2.13;;;;;;;22.06;99.71;94507.19;10481028;28;20016;-72
2021/06/16 06:10:36;;;;;;;5.03;2.40;;;;;;;21.21;100.00;94509.97;10480229;28;20021;-72
2021/06/16 06:15:36;;;;;;;3.47;2.13;;;;;;;20.66;100.00;94508.34;10480626;28;20653;-72
2021/06/16 06:20:36;;;;;;;7.20;2.57;;;;;;;20.32;100.00;94513.13;10480488;28;20283;-75
2021/06/16 06:25:37;;;;;;;7.00;2.37;;;;;;;19.69;100.00;94523.44;10481439;28;20028;-74
2021/06/16 06:30:37;;;;;;;15.10;2.90;;;;;;;19.80;100.00;94520.00;10480922;28;20029;-72
2021/06/16 06:35:38;;;;;;;6.00;2.73;;;;;;;19.78;100.00;94526.91;10480580;28;20053;-73
2021/06/16 06:40:38;;;;;;;8.43;3.27;;;;;;;20.16;100.00;94542.22;10479720;28;20040;-73
2021/06/16 06:45:38;;;;;;;5.27;2.20;;;;;;;19.93;100.00;94544.59;10485556;28;20275;-73
2021/06/16 06:50:39;;;;;;;11.15;3.78;;;;;;;19.48;100.00;94551.56;10488156;28;20063;-72
2021/06/16 06:55:40;;;;;;;7.83;3.50;;;;;;;19.55;100.00;94556.47;10486838;28;20031;-72
2021/06/16 07:00:41;;;;;;;8.10;3.00;;;;;;;19.62;100.00;94548.56;10487651;28;20029;-72
2021/06/16 07:05:41;;;;;;;4.73;2.77;;;;;;;19.44;100.00;94565.06;10487159;28;20437;-73
2021/06/16 07:10:42;;;;;;;14.00;3.17;;;;;;;19.15;100.00;94563.22;10487270;28;20270;-72
2021/06/16 07:15:42;;;;;;;5.87;3.53;;;;;;;19.26;100.00;94552.72;10487640;28;20036;-72
2021/06/16 07:20:43;;;;;;;10.87;3.00;;;;;;;19.21;100.00;94548.25;10486657;28;20355;-73
2021/06/16 07:25:43;;;;;;;8.10;3.78;;;;;;;19.71;100.00;94553.91;10487391;28;20275;-73
2021/06/16 07:30:43;;;;;;;8.90;3.00;;;;;;;20.19;100.00;94538.84;10485376;28;20056;-73
2021/06/16 07:35:44;;;;;;;9.93;2.83;;;;;;;20.72;100.00;94524.53;10484777;28;20052;-73
2021/06/16 07:40:45;;;;;;;5.05;2.13;;;;;;;22.44;100.00;94528.53;10485891;28;20028;-73
2021/06/16 07:45:45;;;;;;;10.57;2.63;;;;;;;24.06;92.13;94528.44;10485837;28;20534;-73
2021/06/16 07:50:46;;;;;;;4.33;2.40;;;;;;;23.99;95.50;94523.63;10486138;28;20102;-77
2021/06/16 07:55:47;;;;;;;13.15;3.22;;;;;;;22.86;99.83;94518.94;10486197;28;20404;-76
2021/06/16 08:00:47;;;;;;;6.73;2.67;;;;;;;23.30;99.08;94524.19;10485665;28;20036;-76
2021/06/16 08:05:50;;;;;;;6.00;2.13;;;;;;;24.00;90.77;94519.72;10485996;28;20139;-76
2021/06/16 08:10:50;;;;;;;4.82;2.22;;;;;;;24.36;86.99;94541.50;10484637;28;20028;-74
2021/06/16 08:15:51;;;;;;;6.83;2.60;;;;;;;25.42;79.04;94537.25;10483145;28;20024;-74
2021/06/16 08:20:51;;;;;;;4.97;2.07;;;;;;;25.78;75.59;94534.16;10483923;28;20294;-75
2021/06/16 08:25:52;;;;;;;3.42;1.60;;;;;;;24.93;78.23;94543.63;10483555;28;20040;-75
2021/06/16 08:30:52;;;;;;;3.73;2.03;;;;;;;24.58;85.18;94553.66;10484017;28;20087;-75
2021/06/16 08:35:53;;;;;;;5.93;2.97;;;;;;;26.37;72.51;94542.63;10482618;28;20389;-75
2021/06/16 08:40:54;;;;;;;3.20;1.95;;;;;;;30.27;52.26;94542.22;10483105;28;20035;-74
2021/06/16 08:45:57;;;;;;;2.88;1.67;;;;;;;29.12;49.46;94548.94;10482849;28;20081;-75
2021/06/16 08:50:57;;;;;;;2.28;1.40;;;;;;;28.89;50.74;94563.19;10483188;28;20036;-76
2021/06/16 08:55:58;;;;;;;5.27;1.80;;;;;;;28.06;53.53;94563.06;10483765;28;20803;-76
2021/06/16 09:00:58;;;;;;;3.60;2.10;;;;;;;27.92;54.56;94569.31;10482857;28;20387;-75
2021/06/16 09:06:07;;;;;;;6.50;2.17;;;;;;;27.99;55.43;94567.72;10482327;28;20040;-76
2021/06/16 09:11:07;;;;;;;5.45;2.15;;;;;;;28.24;55.95;94565.84;10482581;28;20017;-76
2021/06/16 09:16:28;;;;;;;2.57;1.70;;;;;;;29.25;48.21;94557.63;10483046;28;20510;-74
2021/06/16 09:21:39;;;;;;;5.55;1.90;;;;;;;28.45;52.07;94576.19;10482349;28;20032;-76
2021/06/16 09:26:41;;;;;;;5.35;1.88;;;;;;;25.55;64.67;94573.56;10482268;28;20819;-76
2021/06/16 09:31:44;;;;;;;5.75;2.40;;;;;;;24.89;73.74;94577.34;10481320;28;20060;-73
2021/06/16 09:36:49;;;;;;;7.70;2.70;;;;;;;23.81;82.35;94582.84;10482970;28;20082;-73
2021/06/16 09:42:00;;;;;;;5.15;2.55;;;;;;;22.81;95.00;94584.97;10482247;28;20112;-73
2021/06/16 09:47:21;;;;;;;3.95;2.50;;;;;;;22.38;100.00;94595.63;10482369;28;20111;-73
2021/06/16 09:52:35;;;;;;;5.57;3.10;;;;;;;22.68;100.00;94593.28;10482150;28;20659;-73
2021/06/16 09:57:35;;;;;;;8.32;2.97;;;;;;;22.89;98.68;94599.63;10481866;28;20029;-73
2021/06/16 10:02:40;;;;;;;7.10;3.23;;;;;;;23.54;96.62;94602.69;10481922;28;20029;-73
2021/06/16 10:07:40;;;;;;;3.97;2.70;;;;;;;23.93;92.97;94593.69;10481215;28;20332;-73
2021/06/16 10:12:43;;;;;;;3.70;2.10;;;;;;;23.72;81.44;94596.75;10480329;28;20078;-73
2021/06/16 10:17:45;;;;;;;5.32;2.67;;;;;;;23.74;93.54;94599.94;10483998;28;20024;-73
2021/06/16 10:22:45;;;;;;;3.33;2.17;;;;;;;23.98;88.58;94596.13;10489926;28;20028;-73
2021/06/16 10:27:54;;;;;;;4.90;2.28;;;;;;;23.53;90.31;94594.81;10489300;28;20468;-73
2021/06/16 10:32:55;;;;;;;3.78;2.08;;;;;;;22.93;91.79;94598.56;10488853;28;20040;-73
2021/06/16 10:38:10;;;;;;;3.50;2.00;;;;;;;24.60;86.70;94595.31;10487387;28;20028;-73
2021/06/16 10:43:19;;;;;;;6.32;2.25;;;;;;;27.71;59.40;94586.56;10489880;28;20028;-74
2021/06/16 10:48:20;;;;;;;3.97;2.15;;;;;;;27.02;65.52;94587.31;10488523;28;20031;-73
2021/06/16 10:53:25;;;;;;;4.00;2.22;;;;;;;27.49;65.63;94585.69;10488252;28;20013;-73
2021/06/16 10:58:30;;;;;;;8.43;2.00;;;;;;;27.42;64.18;94589.19;10488265;28;20099;-73
2021/06/16 11:03:51;;;;;;;2.88;1.30;;;;;;;27.81;58.46;94587.78;10488406;28;20033;-73
2021/06/16 11:08:51;;;;;;;1.75;1.45;;;;;;;27.82;58.35;94597.66;10488775;28;20020;-73
2021/06/16 11:13:52;;;;;;;2.05;1.30;;;;;;;27.58;49.97;94588.09;10487750;28;20040;-73
2021/06/16 11:19:15;;;;;;;1.60;1.30;;;;;;;27.25;50.46;94593.41;10487200;28;20039;-73
2021/06/16 11:24:16;;;;;;;2.40;1.42;;;;;;;27.66;48.40;94578.66;10487152;28;20279;-74
2021/06/16 11:29:54;;;;;;;2.03;1.60;;;;;;;27.35;46.25;94600.19;10485013;28;20060;-74
2021/06/16 11:34:56;;;;;;;;;;;;;;;26.82;49.74;94592.25;10485705;28;20079;-74
2021/06/16 11:40:03;;;;;;;1.48;1.35;;;;;;;26.14;51.42;94587.69;10487175;28;19913;-73
2021/06/16 11:45:05;;;;;;;1.65;1.38;;;;;;;25.39;54.41;94591.03;10485671;28;20028;-73
2021/06/16 11:50:09;;;;;;;1.42;1.30;;;;;;;25.59;56.42;94594.47;10486517;28;20666;-73
2021/06/16 11:55:09;;;;;;;2.47;1.52;;;;;;;25.58;59.66;94603.88;10485527;28;20190;-73
2021/06/16 12:00:10;;;;;;;1.38;1.23;;;;;;;25.39;67.90;94599.31;10486298;28;20081;-73
2021/06/16 12:05:13;;;;;;;3.38;1.80;;;;;;;25.18;58.08;94598.97;10485609;28;20033;-73
2021/06/16 12:10:19;;;;;;;1.95;1.65;;;;;;;25.37;61.22;94596.16;10485550;28;20712;-74
2021/06/16 12:15:20;;;;;;;3.67;1.75;;;;;;;25.70;57.08;94591.88;10485429;28;20028;-74
2021/06/16 12:20:28;;;;;;;6.25;1.48;;;;;;;25.82;54.34;94587.28;10484852;28;20033;-73
2021/06/16 12:25:32;;;;;;;2.45;1.40;;;;;;;25.82;56.36;94590.03;10485861;28;20064;-73
2021/06/16 12:30:35;;;;;;;2.38;1.60;;;;;;;25.83;53.19;94588.84;10484964;28;20032;-73
2021/06/16 12:35:41;;;;;;;2.85;1.75;;;;;;;25.92;60.03;94586.59;10484389;28;20424;-73
2021/06/16 12:40:42;;;;;;;3.15;1.27;;;;;;;25.94;53.17;94578.75;10483510;28;20105;-73
2021/06/16 12:45:42;;;;;;;1.80;1.52;;;;;;;26.20;54.17;94590.88;10484303;28;20170;-73
2021/06/16 12:50:56;;;;;;;5.33;1.70;;;;;;;26.39;54.83;94590.69;10484094;28;20462;-73
2021/06/16 12:56:01;;;;;;;2.55;1.63;;;;;;;26.11;55.96;94602.22;10483593;28;20732;-73
2021/06/16 13:01:01;;;;;;;3.22;1.98;;;;;;;25.73;57.42;94593.06;10483905;28;20043;-73
2021/06/16 13:06:04;;;;;;;3.77;1.70;;;;;;;25.58;58.69;94594.84;10483936;28;20024;-73
2021/06/16 13:11:27;;;;;;;2.90;1.77;;;;;;;25.45;57.58;94587.97;10482239;28;20598;-73
2021/06/16 13:16:29;;;;;;;6.68;1.20;;;;;;;24.97;58.69;94583.75;10482075;28;20047;-73
2021/06/16 13:21:29;;;;;;;1.95;1.60;;;;;;;24.76;61.51;94592.44;10481791;28;20056;-73
2021/06/16 13:26:30;;;;;;;6.97;2.33;;;;;;;24.73;65.06;94591.22;10481495;28;20024;-73
2021/06/16 13:31:30;;;;;;;5.72;2.25;;;;;;;24.70;75.30;94593.94;10479797;28;20021;-72
2021/06/16 13:36:31;;;;;;;4.27;2.20;;;;;;;24.79;80.27;94599.16;10480684;28;20535;-72
2021/06/16 13:41:31;;;;;;;9.67;2.53;;;;;;;24.44;92.52;94592.66;10480793;28;20067;-72
2021/06/16 13:46:32;;;;;;;4.25;2.83;;;;;;;24.06;100.00;94592.38;10481567;28;20281;-72
2021/06/16 13:51:32;;;;;;;3.27;2.20;;;;;;;23.15;100.00;94590.84;10481781;28;20392;-72
2021/06/16 13:56:32;;;;;;;2.40;2.20;;;;;;;23.06;100.00;94582.78;10490112;28;20270;-72
2021/06/16 14:01:33;;;;;;;6.57;2.77;;;;;;;23.03;100.00;94592.53;10490318;28;20029;-72
2021/06/16 14:06:33;;;;;;;5.30;2.53;;;;;;;22.94;100.00;94586.44;10490925;28;20032;-72
2021/06/16 14:11:34;;;;;;;5.43;2.93;;;;;;;22.91;100.00;94586.34;10488792;28;20090;-72
2021/06/16 14:16:35;;;;;;;6.57;2.30;;;;;;;22.74;100.00;94584.78;10490342;28;20033;-72
2021/06/16 14:21:35;;;;;;;3.00;2.25;;;;;;;22.80;100.00;94583.34;10489469;28;20032;-72
2021/06/16 14:26:35;;;;;;;4.15;2.47;;;;;;;22.80;100.00;94584.16;10488393;28;20012;-72
2021/06/16 14:31:37;;;;;;;3.88;2.90;;;;;;;22.75;100.00;94586.38;10488868;28;20029;-72
2021/06/16 14:36:37;;;;;;;6.63;3.38;;;;;;;22.84;100.00;94578.75;10488748;28;20464;-72
2021/06/16 14:41:38;;;;;;;5.50;3.70;;;;;;;22.97;100.00;94571.22;10488778;28;20024;-72
2021/06/16 14:46:38;;;;;;;5.23;2.80;;;;;;;22.96;100.00;94567.69;10488640;28;20292;-72
2021/06/16 14:51:38;;;;;;;7.27;3.03;;;;;;;23.30;100.00;94573.56;10488227;28;20335;-72
2021/06/16 14:56:40;;;;;;;3.93;2.57;;;;;;;22.98;100.00;94579.09;10488150;28;20032;-72
2021/06/16 15:01:41;;;;;;;5.75;3.08;;;;;;;22.89;100.00;94574.97;10487755;28;20291;-72
2021/06/16 15:06:41;;;;;;;13.30;2.88;;;;;;;22.69;100.00;94577.66;10486348;28;20502;-72
2021/06/16 15:11:42;;;;;;;9.00;3.08;;;;;;;22.47;100.00;94576.31;10488152;28;20027;-72
2021/06/16 15:16:42;;;;;;;9.50;4.60;;;;;;;22.29;100.00;94579.34;10486980;28;20488;-72
2021/06/16 15:21:43;;;;;;;5.70;3.35;;;;;;;22.05;100.00;94574.03;10487149;28;20369;-72
2021/06/16 15:26:43;;;;;;;7.63;4.03;;;;;;;21.98;100.00;94578.16;10487274;28;20082;-72
2021/06/16 15:31:44;;;;;;;11.27;3.70;;;;;;;22.33;100.00;94584.94;10486521;28;20045;-72
2021/06/16 15:36:44;;;;;;;5.50;3.70;;;;;;;22.12;100.00;94588.69;10486506;28;20638;-72
2021/06/16 15:41:45;;;;;;;11.90;3.40;;;;;;;22.07;100.00;94594.41;10486160;28;20357;-72
2021/06/16 15:46:47;;;;;;;7.63;3.92;;;;;;;22.10;100.00;94607.41;10485527;28;20274;-72
2021/06/16 15:51:47;;;;;;;4.82;3.60;;;;;;;22.27;100.00;94617.25;10485883;28;20086;-72
2021/06/16 15:56:48;;;;;;;11.20;3.57;;;;;;;22.46;100.00;94615.81;10485428;28;20071;-72
2021/06/16 16:01:48;;;;;;;9.65;3.03;;;;;;;22.61;100.00;94622.44;10484847;28;20036;-72
2021/06/16 16:06:49;;;;;;;7.57;2.83;;;;;;;22.70;100.00;94631.25;10484972;28;20039;-72
2021/06/16 16:11:49;;;;;;;3.60;2.20;;;;;;;22.65;96.22;94637.81;10485684;28;20024;-72
2021/06/16 16:16:49;;;;;;;2.30;1.90;;;;;;;22.50;93.51;94641.34;10485080;28;20086;-73
2021/06/16 16:21:50;;;;;;;4.87;2.53;;;;;;;22.44;83.23;94642.72;10484020;28;20029;-72
2021/06/16 16:26:50;;;;;;;2.88;1.63;;;;;;;22.36;83.40;94636.28;10484309;28;20026;-73
2021/06/16 16:31:51;;;;;;;2.10;1.93;;;;;;;22.47;86.54;94647.53;10484808;28;20151;-73
2021/06/16 16:36:51;;;;;;;4.07;1.90;;;;;;;22.63;89.55;94659.28;10484446;28;20028;-73
2021/06/16 16:41:52;;;;;;;1.95;1.50;;;;;;;22.69;87.83;94659.84;10482490;28;20048;-73
2021/06/16 16:46:52;;;;;;;4.05;2.20;;;;;;;22.76;83.09;94670.97;10483383;28;20037;-73
2021/06/16 16:51:53;;;;;;;3.75;2.08;;;;;;;22.74;85.21;94669.72;10483842;28;20034;-73
2021/06/16 16:56:53;;;;;;;5.85;2.10;;;;;;;22.76;86.63;94675.63;10483176;28;20028;-73
2021/06/16 17:01:53;;;;;;;4.03;2.23;;;;;;;22.67;81.42;94673.84;10483285;28;20032;-73
2021/06/16 17:06:54;;;;;;;5.90;2.20;;;;;;;22.64;79.04;94677.31;10482977;28;20116;-73
2021/06/16 17:11:54;;;;;;;3.27;2.40;;;;;;;22.57;82.23;94673.59;10483205;28;20032;-72
2021/06/16 17:16:54;;;;;;;6.90;2.27;;;;;;;22.51;81.27;94681.28;10482767;28;20032;-72
2021/06/16 17:21:55;;;;;;;3.77;2.13;;;;;;;22.34;79.22;94676.88;10482764;28;20609;-73
2021/06/16 17:26:55;;;;;;;5.25;2.13;;;;;;;22.29;80.43;94683.41;10482253;28;20108;-72
2021/06/16 17:31:56;;;;;;;4.23;2.67;;;;;;;22.26;82.08;94697.78;10482080;28;20044;-72
2021/06/16 17:37:01;;;;;;;9.13;2.80;;;;;;;21.89;96.33;94697.91;10480864;28;20037;-72
2021/06/16 17:42:15;;;;;;;10.15;3.85;;;;;;;21.47;100.00;94706.41;10496715;28;20303;-72
2021/06/16 17:47:15;;;;;;;7.30;3.58;;;;;;;21.37;100.00;94710.41;10524280;28;20040;-72
2021/06/16 17:52:16;;;;;;;10.10;4.13;;;;;;;21.28;100.00;94705.06;10521460;28;20051;-73
2021/06/16 17:57:16;;;;;;;9.63;4.07;;;;;;;21.00;100.00;94715.84;10492516;28;20032;-73
2021/06/16 18:02:17;;;;;;;8.73;4.75;;;;;;;20.85;100.00;94719.25;10481775;28;20866;-72
2021/06/16 18:07:17;;;;;;;8.97;4.40;;;;;;;20.65;100.00;94733.41;10482943;28;20029;-72
2021/06/16 18:12:18;;;;;;;9.43;4.38;;;;;;;20.64;100.00;94739.22;10505919;28;20483;-72
2021/06/16 18:17:18;;;;;;;9.13;3.95;;;;;;;20.36;100.00;94742.53;10523733;28;20062;-72
2021/06/16 18:22:19;;;;;;;8.15;4.53;;;;;;;20.13;100.00;94751.06;10524085;28;20043;-72
2021/06/16 18:27:20;;;;;;;6.70;3.97;;;;;;;19.91;100.00;94749.50;10524579;28;20032;-73
2021/06/16 18:32:21;;;;;;;7.85;3.90;;;;;;;19.89;100.00;94759.13;10522546;28;20044;-73
2021/06/16 18:37:25;;;;;;;9.65;4.60;;;;;;;19.98;100.00;94760.66;10525654;28;20028;-73
2021/06/16 18:42:28;;;;;;;5.20;3.50;;;;;;;20.05;100.00;94767.50;10535130;28;20546;-73
2021/06/16 18:47:30;;;;;;;9.15;4.95;;;;;;;19.96;100.00;94759.41;10523017;28;20039;-73
2021/06/16 18:52:30;;;;;;;5.40;3.80;;;;;;;19.99;100.00;94772.38;10492601;28;20074;-73
2021/06/16 18:57:31;;;;;;;8.83;3.67;;;;;;;20.01;100.00;94780.22;10493211;28;20501;-72
2021/06/16 19:02:39;;;;;;;5.25;3.20;;;;;;;20.05;100.00;94787.44;10491012;28;20274;-73
2021/06/16 19:07:39;;;;;;;6.25;3.22;;;;;;;20.03;100.00;94795.13;10492194;28;20072;-73
2021/06/16 19:12:39;;;;;;;3.77;2.87;;;;;;;19.93;100.00;94787.34;10499020;28;20151;-73
2021/06/16 19:17:40;;;;;;;6.73;3.33;;;;;;;19.95;100.00;94793.25;10532948;28;20282;-72
2021/06/16 19:22:40;;;;;;;5.23;2.83;;;;;;;19.91;100.00;94792.31;10533508;28;20036;-73
2021/06/16 19:27:42;;;;;;;4.88;3.67;;;;;;;19.87;100.00;94792.19;10533613;28;20024;-75
2021/06/16 19:32:42;;;;;;;7.97;3.83;;;;;;;19.83;100.00;94802.16;10532994;28;20044;-73
2021/06/16 19:37:43;;;;;;;9.33;3.70;;;;;;;19.74;100.00;94810.34;10530758;28;20032;-72
2021/06/16 19:42:44;;;;;;;4.32;3.25;;;;;;;19.84;100.00;94831.03;10529209;28;20308;-74
2021/06/16 19:47:45;;;;;;;3.80;3.38;;;;;;;19.80;100.00;94852.72;10529161;28;20035;-74
2021/06/16 19:52:46;;;;;;;7.30;3.83;;;;;;;19.86;100.00;94869.69;10528778;28;20032;-74
2021/06/16 19:57:46;;;;;;;9.68;2.67;;;;;;;19.94;100.00;94895.31;10528399;28;20032;-74
2021/06/16 20:02:47;;;;;;;13.52;4.30;;;;;;;19.50;100.00;94905.59;10529334;28;20825;-74
2021/06/16 20:07:48;;;;;;;27.67;7.22;;;;;;;18.92;100.00;94928.47;10528059;28;20154;-73
2021/06/16 20:12:50;;;;;;;7.93;3.95;;;;;;;18.25;100.00;94956.84;10527476;28;20100;-72
2021/06/16 20:17:51;;;;;;;9.30;3.90;;;;;;;17.34;100.00;94970.66;10528014;28;20032;-71
2021/06/16 20:22:52;;;;;;;11.10;3.78;;;;;;;16.68;100.00;94987.41;10527251;28;20066;-72
2021/06/16 20:27:52;;;;;;;4.53;3.87;;;;;;;16.23;100.00;95000.84;10527322;28;20034;-72
2021/06/16 20:32:54;;;;;;;5.93;4.93;;;;;;;15.98;100.00;95016.50;10527480;28;20475;-72
2021/06/16 20:37:58;;;;;;;7.15;4.40;;;;;;;15.73;100.00;95006.91;10527001;28;20035;-72
2021/06/16 20:43:00;;;;;;;10.80;4.72;;;;;;;15.47;100.00;95011.97;10527142;28;20047;-71
2021/06/16 20:48:01;;;;;;;5.05;3.60;;;;;;;15.37;100.00;95012.94;10509386;28;20478;-72
2021/06/16 20:53:02;;;;;;;5.07;3.78;;;;;;;15.29;100.00;95000.09;10484856;28;20038;-72
2021/06/16 20:58:02;;;;;;;4.35;2.95;;;;;;;15.24;100.00;94986.63;10484192;28;20036;-72
2021/06/16 21:03:03;;;;;;;3.00;2.28;;;;;;;15.18;100.00;94965.06;10483813;28;20036;-72
2021/06/16 21:08:06;;;;;;;2.65;2.03;;;;;;;15.25;100.00;94940.31;10492337;28;20815;-72
2021/06/16 21:13:07;;;;;;;2.08;1.88;;;;;;;15.37;100.00;94940.63;10483484;28;20111;-72
2021/06/16 21:18:07;;;;;;;4.10;2.17;;;;;;;15.54;100.00;94933.81;10484315;28;20089;-72
2021/06/16 21:23:08;;;;;;;3.17;2.50;;;;;;;15.61;100.00;94936.94;10484741;28;20040;-72
2021/06/16 21:28:09;;;;;;;3.45;2.65;;;;;;;15.73;100.00;94931.03;10525235;28;20987;-72
2021/06/16 21:33:10;;;;;;;4.47;3.10;;;;;;;15.81;100.00;94937.69;10525696;28;20135;-72
2021/06/16 21:38:10;;;;;;;3.13;2.65;;;;;;;15.78;100.00;94939.06;10519094;28;20039;-72
2021/06/16 21:43:11;;;;;;;4.63;2.90;;;;;;;15.89;100.00;94945.94;10484268;28;20411;-72
2021/06/16 21:48:12;;;;;;;5.35;3.17;;;;;;;15.93;100.00;94948.81;10485029;28;20275;-72
2021/06/16 21:53:12;;;;;;;3.17;2.63;;;;;;;15.90;100.00;94944.00;10486814;28;20040;-72
2021/06/16 21:58:13;;;;;;;4.00;2.53;;;;;;;15.93;100.00;94943.41;10486255;28;20037;-72
2021/06/16 22:03:14;;;;;;;3.28;2.58;;;;;;;15.99;100.00;94942.22;10486240;28;20035;-72
2021/06/16 22:08:14;;;;;;;2.83;2.42;;;;;;;15.88;100.00;94938.09;10487269;28;20024;-72
2021/06/16 22:13:15;;;;;;;3.22;2.17;;;;;;;15.91;100.00;94942.91;10487577;28;20847;-72
2021/06/16 22:18:15;;;;;;;4.28;2.80;;;;;;;15.95;100.00;94951.22;10494309;28;20495;-72
2021/06/16 22:23:17;;;;;;;7.47;3.10;;;;;;;15.96;100.00;94958.25;10494820;28;20028;-72
2021/06/16 22:28:19;;;;;;;5.45;2.50;;;;;;;16.07;100.00;94978.63;10493575;28;20345;-72
2021/06/16 22:33:20;;;;;;;4.65;2.40;;;;;;;16.07;100.00;94978.63;10493402;28;20079;-72
2021/06/16 22:38:20;;;;;;;9.10;2.22;;;;;;;15.96;100.00;94969.09;10491921;28;20104;-72
2021/06/16 22:43:21;;;;;;;2.78;2.33;;;;;;;15.89;100.00;94970.31;10489484;28;20021;-72
2021/06/16 22:48:21;;;;;;;5.80;3.37;;;;;;;15.73;100.00;94975.19;10489620;28;20020;-72
2021/06/16 22:53:21;;;;;;;4.22;3.30;;;;;;;15.73;100.00;94985.22;10490306;28;20131;-72
2021/06/16 22:58:22;;;;;;;6.07;4.20;;;;;;;15.61;100.00;94987.63;10489038;28;20024;-72
2021/06/16 23:03:22;;;;;;;5.88;3.97;;;;;;;15.67;100.00;95000.78;10489212;28;20074;-72
2021/06/16 23:08:23;;;;;;;8.00;3.38;;;;;;;15.50;100.00;94995.13;10489764;28;20078;-72
2021/06/16 23:13:26;;;;;;;5.82;2.65;;;;;;;15.39;100.00;95013.44;10488286;28;20057;-72